sensor_id;sensor_type;location;lat;lon;timestamp;P1;durP1;ratioP1;P2;durP2;ratioP2
77262;SDS011;66373;52.334;4.806;2023-07-29T00:00:50;2.47;;;1.27;;
77262;SDS011;66373;52.334;4.806;2023-07-29T00:03:17;1.45;;;1.35;;
77262;SDS011;66373;52.334;4.806;2023-07-29T00:05:44;1.88;;;1.45;;
77262;SDS011;66373;52.334;4.806;2023-07-29T00:08:11;3.63;;;1.70;;
77262;SDS011;66373;52.334;4.806;2023-07-29T00:10:38;2.03;;;1.55;;
77262;SDS011;66373;52.334;4.806;2023-07-29T00:13:05;1.95;;;1.60;;
77262;SDS011;66373;52.334;4.806;2023-07-29T00:15:32;1.73;;;1.42;;
77262;SDS011;66373;52.334;4.806;2023-07-29T00:18:01;4.43;;;1.40;;
77262;SDS011;66373;52.334;4.806;2023-07-29T00:20:28;2.55;;;1.75;;
77262;SDS011;66373;52.334;4.806;2023-07-29T00:22:55;3.20;;;1.63;;
77262;SDS011;66373;52.334;4.806;2023-07-29T00:25:23;1.75;;;1.52;;
77262;SDS011;66373;52.334;4.806;2023-07-29T00:27:50;4.07;;;1.70;;
77262;SDS011;66373;52.334;4.806;2023-07-29T00:30:20;3.05;;;1.45;;
77262;SDS011;66373;52.334;4.806;2023-07-29T00:32:47;1.67;;;1.33;;
77262;SDS011;66373;52.334;4.806;2023-07-29T00:35:16;2.78;;;1.58;;
77262;SDS011;66373;52.334;4.806;2023-07-29T00:37:43;1.58;;;1.48;;
77262;SDS011;66373;52.334;4.806;2023-07-29T00:40:13;1.92;;;1.67;;
77262;SDS011;66373;52.334;4.806;2023-07-29T00:42:42;2.65;;;1.65;;
77262;SDS011;66373;52.334;4.806;2023-07-29T00:45:09;1.95;;;1.70;;
77262;SDS011;66373;52.334;4.806;2023-07-29T00:47:36;2.83;;;1.50;;
77262;SDS011;66373;52.334;4.806;2023-07-29T00:50:05;1.60;;;1.50;;
77262;SDS011;66373;52.334;4.806;2023-07-29T00:52:34;2.28;;;1.48;;
77262;SDS011;66373;52.334;4.806;2023-07-29T00:55:01;1.65;;;1.55;;
77262;SDS011;66373;52.334;4.806;2023-07-29T00:57:29;1.75;;;1.23;;
77262;SDS011;66373;52.334;4.806;2023-07-29T00:59:56;1.48;;;1.38;;
77262;SDS011;66373;52.334;4.806;2023-07-29T01:02:23;1.50;;;1.50;;
77262;SDS011;66373;52.334;4.806;2023-07-29T01:04:52;1.40;;;1.25;;
77262;SDS011;66373;52.334;4.806;2023-07-29T01:07:21;1.65;;;1.55;;
77262;SDS011;66373;52.334;4.806;2023-07-29T01:09:58;2.28;;;1.45;;
77262;SDS011;66373;52.334;4.806;2023-07-29T01:12:30;1.48;;;1.35;;
77262;SDS011;66373;52.334;4.806;2023-07-29T01:15:08;1.30;;;1.30;;
77262;SDS011;66373;52.334;4.806;2023-07-29T01:17:42;2.17;;;1.45;;
77262;SDS011;66373;52.334;4.806;2023-07-29T01:20:13;1.88;;;1.77;;
77262;SDS011;66373;52.334;4.806;2023-07-29T01:22:42;1.40;;;1.30;;
77262;SDS011;66373;52.334;4.806;2023-07-29T01:25:11;2.40;;;1.75;;
77262;SDS011;66373;52.334;4.806;2023-07-29T01:27:38;2.00;;;1.63;;
77262;SDS011;66373;52.334;4.806;2023-07-29T01:30:06;1.55;;;1.50;;
77262;SDS011;66373;52.334;4.806;2023-07-29T01:32:35;1.70;;;1.60;;
77262;SDS011;66373;52.334;4.806;2023-07-29T01:35:10;2.35;;;1.50;;
77262;SDS011;66373;52.334;4.806;2023-07-29T01:37:47;2.35;;;1.65;;
77262;SDS011;66373;52.334;4.806;2023-07-29T01:40:19;1.48;;;1.40;;
77262;SDS011;66373;52.334;4.806;2023-07-29T01:42:49;2.05;;;1.80;;
77262;SDS011;66373;52.334;4.806;2023-07-29T01:45:17;1.60;;;1.50;;
77262;SDS011;66373;52.334;4.806;2023-07-29T01:47:45;1.92;;;1.60;;
77262;SDS011;66373;52.334;4.806;2023-07-29T01:50:14;3.30;;;1.80;;
77262;SDS011;66373;52.334;4.806;2023-07-29T01:52:41;2.17;;;1.63;;
77262;SDS011;66373;52.334;4.806;2023-07-29T01:55:08;2.20;;;1.50;;
77262;SDS011;66373;52.334;4.806;2023-07-29T01:57:36;1.63;;;1.52;;
77262;SDS011;66373;52.334;4.806;2023-07-29T02:00:04;2.88;;;1.65;;
77262;SDS011;66373;52.334;4.806;2023-07-29T02:02:39;1.73;;;1.48;;
77262;SDS011;66373;52.334;4.806;2023-07-29T02:05:07;1.98;;;1.50;;
77262;SDS011;66373;52.334;4.806;2023-07-29T02:07:34;1.80;;;1.70;;
77262;SDS011;66373;52.334;4.806;2023-07-29T02:10:01;3.58;;;1.88;;
77262;SDS011;66373;52.334;4.806;2023-07-29T02:12:28;2.65;;;1.80;;
77262;SDS011;66373;52.334;4.806;2023-07-29T02:14:56;1.95;;;1.65;;
77262;SDS011;66373;52.334;4.806;2023-07-29T02:17:23;2.63;;;2.00;;
77262;SDS011;66373;52.334;4.806;2023-07-29T02:19:51;1.67;;;1.58;;
77262;SDS011;66373;52.334;4.806;2023-07-29T02:22:18;3.25;;;1.70;;
77262;SDS011;66373;52.334;4.806;2023-07-29T02:24:45;5.50;;;1.92;;
77262;SDS011;66373;52.334;4.806;2023-07-29T02:27:12;2.25;;;1.67;;
77262;SDS011;66373;52.334;4.806;2023-07-29T02:29:39;2.33;;;1.98;;
77262;SDS011;66373;52.334;4.806;2023-07-29T02:32:08;2.40;;;1.90;;
77262;SDS011;66373;52.334;4.806;2023-07-29T02:34:35;1.98;;;1.63;;
77262;SDS011;66373;52.334;4.806;2023-07-29T02:37:02;2.65;;;1.88;;
77262;SDS011;66373;52.334;4.806;2023-07-29T02:39:30;1.67;;;1.50;;
77262;SDS011;66373;52.334;4.806;2023-07-29T02:41:57;1.90;;;1.80;;
77262;SDS011;66373;52.334;4.806;2023-07-29T02:44:24;2.17;;;1.98;;
77262;SDS011;66373;52.334;4.806;2023-07-29T02:46:51;2.45;;;1.90;;
77262;SDS011;66373;52.334;4.806;2023-07-29T02:49:22;2.92;;;1.88;;
77262;SDS011;66373;52.334;4.806;2023-07-29T02:51:49;2.28;;;2.00;;
77262;SDS011;66373;52.334;4.806;2023-07-29T02:54:16;2.70;;;1.92;;
77262;SDS011;66373;52.334;4.806;2023-07-29T02:56:43;3.53;;;1.70;;
77262;SDS011;66373;52.334;4.806;2023-07-29T02:59:10;1.95;;;1.85;;
77262;SDS011;66373;52.334;4.806;2023-07-29T03:01:37;2.28;;;2.03;;
77262;SDS011;66373;52.334;4.806;2023-07-29T03:04:04;2.08;;;1.80;;
77262;SDS011;66373;52.334;4.806;2023-07-29T03:06:33;3.78;;;2.00;;
77262;SDS011;66373;52.334;4.806;2023-07-29T03:09:00;1.90;;;1.80;;
77262;SDS011;66373;52.334;4.806;2023-07-29T03:11:27;2.10;;;1.95;;
77262;SDS011;66373;52.334;4.806;2023-07-29T03:13:54;2.03;;;1.85;;
77262;SDS011;66373;52.334;4.806;2023-07-29T03:16:22;3.90;;;2.00;;
77262;SDS011;66373;52.334;4.806;2023-07-29T03:21:20;1.90;;;1.77;;
77262;SDS011;66373;52.334;4.806;2023-07-29T03:23:48;3.65;;;2.30;;
77262;SDS011;66373;52.334;4.806;2023-07-29T03:26:15;4.47;;;1.85;;
77262;SDS011;66373;52.334;4.806;2023-07-29T03:28:42;3.15;;;1.95;;
77262;SDS011;66373;52.334;4.806;2023-07-29T03:31:10;2.90;;;2.00;;
77262;SDS011;66373;52.334;4.806;2023-07-29T03:33:37;2.35;;;1.70;;
77262;SDS011;66373;52.334;4.806;2023-07-29T03:36:05;2.20;;;1.73;;
77262;SDS011;66373;52.334;4.806;2023-07-29T03:38:32;2.97;;;2.15;;
77262;SDS011;66373;52.334;4.806;2023-07-29T03:41:02;2.15;;;1.95;;
77262;SDS011;66373;52.334;4.806;2023-07-29T03:43:29;3.92;;;2.17;;
77262;SDS011;66373;52.334;4.806;2023-07-29T03:45:58;2.17;;;1.98;;
77262;SDS011;66373;52.334;4.806;2023-07-29T03:48:25;5.00;;;1.75;;
77262;SDS011;66373;52.334;4.806;2023-07-29T03:50:52;4.75;;;2.28;;
77262;SDS011;66373;52.334;4.806;2023-07-29T03:53:19;3.67;;;2.05;;
77262;SDS011;66373;52.334;4.806;2023-07-29T03:55:46;3.60;;;1.98;;
77262;SDS011;66373;52.334;4.806;2023-07-29T03:58:16;2.15;;;1.90;;
77262;SDS011;66373;52.334;4.806;2023-07-29T04:00:43;2.08;;;1.85;;
77262;SDS011;66373;52.334;4.806;2023-07-29T04:03:10;4.15;;;1.98;;
77262;SDS011;66373;52.334;4.806;2023-07-29T04:05:37;2.05;;;1.75;;
77262;SDS011;66373;52.334;4.806;2023-07-29T04:08:04;1.92;;;1.73;;
77262;SDS011;66373;52.334;4.806;2023-07-29T04:10:32;2.00;;;1.90;;
77262;SDS011;66373;52.334;4.806;2023-07-29T04:13:00;3.10;;;2.20;;
77262;SDS011;66373;52.334;4.806;2023-07-29T04:15:28;2.58;;;2.38;;
77262;SDS011;66373;52.334;4.806;2023-07-29T04:17:56;2.08;;;1.90;;
77262;SDS011;66373;52.334;4.806;2023-07-29T04:20:23;4.05;;;2.00;;
77262;SDS011;66373;52.334;4.806;2023-07-29T04:22:50;3.22;;;2.15;;
77262;SDS011;66373;52.334;4.806;2023-07-29T04:25:17;3.28;;;2.00;;
77262;SDS011;66373;52.334;4.806;2023-07-29T04:27:45;4.32;;;1.90;;
77262;SDS011;66373;52.334;4.806;2023-07-29T04:30:12;2.45;;;1.77;;
77262;SDS011;66373;52.334;4.806;2023-07-29T04:32:40;2.00;;;1.77;;
77262;SDS011;66373;52.334;4.806;2023-07-29T04:35:10;2.53;;;2.00;;
77262;SDS011;66373;52.334;4.806;2023-07-29T04:37:37;3.00;;;2.10;;
77262;SDS011;66373;52.334;4.806;2023-07-29T04:40:04;2.13;;;1.90;;
77262;SDS011;66373;52.334;4.806;2023-07-29T04:42:32;2.40;;;1.90;;
77262;SDS011;66373;52.334;4.806;2023-07-29T04:45:01;2.15;;;1.95;;
77262;SDS011;66373;52.334;4.806;2023-07-29T04:47:31;4.43;;;2.40;;
77262;SDS011;66373;52.334;4.806;2023-07-29T04:49:59;2.58;;;2.00;;
77262;SDS011;66373;52.334;4.806;2023-07-29T04:52:26;3.53;;;2.17;;
77262;SDS011;66373;52.334;4.806;2023-07-29T04:54:53;2.33;;;1.95;;
77262;SDS011;66373;52.334;4.806;2023-07-29T04:57:20;5.28;;;1.90;;
77262;SDS011;66373;52.334;4.806;2023-07-29T04:59:47;1.98;;;1.77;;
77262;SDS011;66373;52.334;4.806;2023-07-29T05:02:14;3.20;;;2.10;;
77262;SDS011;66373;52.334;4.806;2023-07-29T05:04:41;2.35;;;2.05;;
77262;SDS011;66373;52.334;4.806;2023-07-29T05:07:10;2.83;;;2.25;;
77262;SDS011;66373;52.334;4.806;2023-07-29T05:09:37;2.17;;;2.00;;
77262;SDS011;66373;52.334;4.806;2023-07-29T05:12:04;2.53;;;2.05;;
77262;SDS011;66373;52.334;4.806;2023-07-29T05:14:32;5.15;;;2.33;;
77262;SDS011;66373;52.334;4.806;2023-07-29T05:16:59;6.30;;;1.80;;
77262;SDS011;66373;52.334;4.806;2023-07-29T05:19:27;1.90;;;1.80;;
77262;SDS011;66373;52.334;4.806;2023-07-29T05:21:55;2.17;;;2.00;;
77262;SDS011;66373;52.334;4.806;2023-07-29T05:24:23;2.30;;;2.10;;
77262;SDS011;66373;52.334;4.806;2023-07-29T05:26:50;3.50;;;2.15;;
77262;SDS011;66373;52.334;4.806;2023-07-29T05:29:17;4.18;;;2.30;;
77262;SDS011;66373;52.334;4.806;2023-07-29T05:31:44;3.28;;;2.00;;
77262;SDS011;66373;52.334;4.806;2023-07-29T05:34:11;4.03;;;2.38;;
77262;SDS011;66373;52.334;4.806;2023-07-29T05:36:39;3.63;;;2.55;;
77262;SDS011;66373;52.334;4.806;2023-07-29T05:39:06;2.78;;;2.05;;
77262;SDS011;66373;52.334;4.806;2023-07-29T05:41:35;4.57;;;1.92;;
77262;SDS011;66373;52.334;4.806;2023-07-29T05:44:02;1.92;;;1.85;;
77262;SDS011;66373;52.334;4.806;2023-07-29T05:46:29;2.55;;;2.10;;
77262;SDS011;66373;52.334;4.806;2023-07-29T05:48:56;2.92;;;2.20;;
77262;SDS011;66373;52.334;4.806;2023-07-29T05:51:23;3.60;;;2.13;;
77262;SDS011;66373;52.334;4.806;2023-07-29T05:53:50;2.40;;;2.10;;
77262;SDS011;66373;52.334;4.806;2023-07-29T05:56:17;3.70;;;2.05;;
77262;SDS011;66373;52.334;4.806;2023-07-29T05:58:45;4.70;;;2.22;;
77262;SDS011;66373;52.334;4.806;2023-07-29T06:01:12;3.47;;;2.03;;
77262;SDS011;66373;52.334;4.806;2023-07-29T06:03:40;3.05;;;2.20;;
77262;SDS011;66373;52.334;4.806;2023-07-29T06:06:07;2.80;;;2.00;;
77262;SDS011;66373;52.334;4.806;2023-07-29T06:08:34;3.22;;;1.90;;
77262;SDS011;66373;52.334;4.806;2023-07-29T06:11:01;2.50;;;2.10;;
77262;SDS011;66373;52.334;4.806;2023-07-29T06:13:28;5.00;;;2.03;;
77262;SDS011;66373;52.334;4.806;2023-07-29T06:15:56;2.30;;;2.10;;
77262;SDS011;66373;52.334;4.806;2023-07-29T06:18:24;3.35;;;1.80;;
77262;SDS011;66373;52.334;4.806;2023-07-29T06:20:51;3.38;;;2.03;;
77262;SDS011;66373;52.334;4.806;2023-07-29T06:23:19;4.05;;;2.45;;
77262;SDS011;66373;52.334;4.806;2023-07-29T06:25:46;4.03;;;2.33;;
77262;SDS011;66373;52.334;4.806;2023-07-29T06:28:13;3.10;;;2.13;;
77262;SDS011;66373;52.334;4.806;2023-07-29T06:30:40;3.80;;;2.13;;
77262;SDS011;66373;52.334;4.806;2023-07-29T06:33:08;2.58;;;2.08;;
77262;SDS011;66373;52.334;4.806;2023-07-29T06:35:35;2.38;;;2.17;;
77262;SDS011;66373;52.334;4.806;2023-07-29T06:38:03;5.47;;;2.22;;
77262;SDS011;66373;52.334;4.806;2023-07-29T06:40:30;3.30;;;2.13;;
77262;SDS011;66373;52.334;4.806;2023-07-29T06:42:57;2.92;;;1.98;;
77262;SDS011;66373;52.334;4.806;2023-07-29T06:45:24;3.40;;;2.03;;
77262;SDS011;66373;52.334;4.806;2023-07-29T06:47:51;3.22;;;1.88;;
77262;SDS011;66373;52.334;4.806;2023-07-29T06:50:20;4.03;;;2.15;;
77262;SDS011;66373;52.334;4.806;2023-07-29T06:52:47;4.28;;;2.13;;
77262;SDS011;66373;52.334;4.806;2023-07-29T06:55:14;3.17;;;1.90;;
77262;SDS011;66373;52.334;4.806;2023-07-29T06:57:41;3.50;;;2.13;;
77262;SDS011;66373;52.334;4.806;2023-07-29T07:00:08;2.53;;;1.90;;
77262;SDS011;66373;52.334;4.806;2023-07-29T07:02:36;3.20;;;2.22;;
77262;SDS011;66373;52.334;4.806;2023-07-29T07:05:03;4.65;;;2.33;;
77262;SDS011;66373;52.334;4.806;2023-07-29T07:07:31;3.28;;;1.92;;
77262;SDS011;66373;52.334;4.806;2023-07-29T07:09:59;2.35;;;1.90;;
77262;SDS011;66373;52.334;4.806;2023-07-29T07:12:26;2.15;;;1.95;;
77262;SDS011;66373;52.334;4.806;2023-07-29T07:14:53;3.72;;;1.88;;
77262;SDS011;66373;52.334;4.806;2023-07-29T07:17:20;2.83;;;1.90;;
77262;SDS011;66373;52.334;4.806;2023-07-29T07:19:47;3.00;;;2.05;;
77262;SDS011;66373;52.334;4.806;2023-07-29T07:22:13;2.90;;;2.10;;
77262;SDS011;66373;52.334;4.806;2023-07-29T07:24:42;2.97;;;1.85;;
77262;SDS011;66373;52.334;4.806;2023-07-29T07:27:09;2.30;;;2.00;;
77262;SDS011;66373;52.334;4.806;2023-07-29T07:29:36;2.35;;;1.80;;
77262;SDS011;66373;52.334;4.806;2023-07-29T07:32:03;2.17;;;1.90;;
77262;SDS011;66373;52.334;4.806;2023-07-29T07:34:30;3.63;;;2.00;;
77262;SDS011;66373;52.334;4.806;2023-07-29T07:36:59;2.88;;;1.90;;
77262;SDS011;66373;52.334;4.806;2023-07-29T07:39:25;1.95;;;1.83;;
77262;SDS011;66373;52.334;4.806;2023-07-29T07:41:54;3.17;;;1.83;;
77262;SDS011;66373;52.334;4.806;2023-07-29T07:44:21;3.33;;;2.10;;
77262;SDS011;66373;52.334;4.806;2023-07-29T07:46:48;4.13;;;1.95;;
77262;SDS011;66373;52.334;4.806;2023-07-29T07:49:15;2.30;;;1.95;;
77262;SDS011;66373;52.334;4.806;2023-07-29T07:51:43;4.93;;;2.33;;
77262;SDS011;66373;52.334;4.806;2023-07-29T07:54:10;3.67;;;2.15;;
77262;SDS011;66373;52.334;4.806;2023-07-29T07:56:37;2.78;;;2.03;;
77262;SDS011;66373;52.334;4.806;2023-07-29T07:59:05;3.30;;;2.00;;
77262;SDS011;66373;52.334;4.806;2023-07-29T08:01:34;4.00;;;2.00;;
77262;SDS011;66373;52.334;4.806;2023-07-29T08:04:02;2.47;;;2.00;;
77262;SDS011;66373;52.334;4.806;2023-07-29T08:06:29;2.60;;;2.00;;
77262;SDS011;66373;52.334;4.806;2023-07-29T08:08:56;4.80;;;2.00;;
77262;SDS011;66373;52.334;4.806;2023-07-29T08:11:23;3.22;;;2.03;;
77262;SDS011;66373;52.334;4.806;2023-07-29T08:13:50;3.78;;;1.98;;
77262;SDS011;66373;52.334;4.806;2023-07-29T08:16:18;3.33;;;1.92;;
77262;SDS011;66373;52.334;4.806;2023-07-29T08:18:45;3.38;;;1.85;;
77262;SDS011;66373;52.334;4.806;2023-07-29T08:21:12;3.53;;;1.90;;
77262;SDS011;66373;52.334;4.806;2023-07-29T08:23:39;3.28;;;1.90;;
77262;SDS011;66373;52.334;4.806;2023-07-29T08:26:06;2.25;;;1.90;;
77262;SDS011;66373;52.334;4.806;2023-07-29T08:28:34;4.15;;;2.10;;
77262;SDS011;66373;52.334;4.806;2023-07-29T08:31:02;4.45;;;2.10;;
77262;SDS011;66373;52.334;4.806;2023-07-29T08:33:31;4.55;;;1.92;;
77262;SDS011;66373;52.334;4.806;2023-07-29T08:36:00;3.53;;;1.85;;
77262;SDS011;66373;52.334;4.806;2023-07-29T08:38:27;2.78;;;2.05;;
77262;SDS011;66373;52.334;4.806;2023-07-29T08:40:58;2.92;;;2.10;;
77262;SDS011;66373;52.334;4.806;2023-07-29T08:46:10;3.38;;;1.73;;
77262;SDS011;66373;52.334;4.806;2023-07-29T08:48:43;4.82;;;2.20;;
77262;SDS011;66373;52.334;4.806;2023-07-29T08:51:10;3.38;;;2.00;;
77262;SDS011;66373;52.334;4.806;2023-07-29T08:53:38;2.97;;;1.83;;
77262;SDS011;66373;52.334;4.806;2023-07-29T08:56:06;3.03;;;2.15;;
77262;SDS011;66373;52.334;4.806;2023-07-29T08:58:33;2.90;;;2.10;;
77262;SDS011;66373;52.334;4.806;2023-07-29T09:01:01;4.70;;;1.90;;
77262;SDS011;66373;52.334;4.806;2023-07-29T09:03:28;2.75;;;1.98;;
77262;SDS011;66373;52.334;4.806;2023-07-29T09:05:57;4.35;;;1.95;;
77262;SDS011;66373;52.334;4.806;2023-07-29T09:08:25;3.63;;;1.98;;
77262;SDS011;66373;52.334;4.806;2023-07-29T09:10:53;4.78;;;2.00;;
77262;SDS011;66373;52.334;4.806;2023-07-29T09:13:20;4.70;;;2.20;;
77262;SDS011;66373;52.334;4.806;2023-07-29T09:15:47;2.80;;;2.20;;
77262;SDS011;66373;52.334;4.806;2023-07-29T09:18:15;6.28;;;2.00;;
77262;SDS011;66373;52.334;4.806;2023-07-29T09:20:43;2.65;;;2.00;;
77262;SDS011;66373;52.334;4.806;2023-07-29T09:23:15;4.45;;;2.08;;
77262;SDS011;66373;52.334;4.806;2023-07-29T09:25:43;4.72;;;2.20;;
77262;SDS011;66373;52.334;4.806;2023-07-29T09:28:12;2.58;;;1.90;;
77262;SDS011;66373;52.334;4.806;2023-07-29T09:30:44;4.57;;;2.25;;
77262;SDS011;66373;52.334;4.806;2023-07-29T09:33:13;4.75;;;1.85;;
77262;SDS011;66373;52.334;4.806;2023-07-29T09:35:40;4.30;;;1.98;;
77262;SDS011;66373;52.334;4.806;2023-07-29T09:38:08;2.20;;;2.00;;
77262;SDS011;66373;52.334;4.806;2023-07-29T09:40:42;4.10;;;1.92;;
77262;SDS011;66373;52.334;4.806;2023-07-29T09:43:10;3.33;;;1.95;;
77262;SDS011;66373;52.334;4.806;2023-07-29T09:45:37;4.95;;;2.15;;
77262;SDS011;66373;52.334;4.806;2023-07-29T09:48:04;4.95;;;2.17;;
77262;SDS011;66373;52.334;4.806;2023-07-29T09:50:37;2.65;;;2.10;;
77262;SDS011;66373;52.334;4.806;2023-07-29T09:53:04;3.17;;;1.95;;
77262;SDS011;66373;52.334;4.806;2023-07-29T09:55:33;3.17;;;2.00;;
77262;SDS011;66373;52.334;4.806;2023-07-29T09:58:02;5.18;;;2.03;;
77262;SDS011;66373;52.334;4.806;2023-07-29T10:00:33;4.72;;;2.10;;
77262;SDS011;66373;52.334;4.806;2023-07-29T10:03:03;2.85;;;2.17;;
77262;SDS011;66373;52.334;4.806;2023-07-29T10:05:31;4.95;;;2.53;;
77262;SDS011;66373;52.334;4.806;2023-07-29T10:08:01;4.00;;;1.98;;
77262;SDS011;66373;52.334;4.806;2023-07-29T10:10:28;3.45;;;1.92;;
77262;SDS011;66373;52.334;4.806;2023-07-29T10:12:56;3.17;;;2.03;;
77262;SDS011;66373;52.334;4.806;2023-07-29T10:15:25;4.97;;;2.17;;
77262;SDS011;66373;52.334;4.806;2023-07-29T10:17:52;4.13;;;2.15;;
77262;SDS011;66373;52.334;4.806;2023-07-29T10:20:20;2.97;;;2.00;;
77262;SDS011;66373;52.334;4.806;2023-07-29T10:22:48;3.30;;;1.98;;
77262;SDS011;66373;52.334;4.806;2023-07-29T10:25:17;2.83;;;2.00;;
77262;SDS011;66373;52.334;4.806;2023-07-29T10:27:47;3.42;;;2.10;;
77262;SDS011;66373;52.334;4.806;2023-07-29T10:30:16;2.70;;;2.00;;
77262;SDS011;66373;52.334;4.806;2023-07-29T10:32:45;3.47;;;2.30;;
77262;SDS011;66373;52.334;4.806;2023-07-29T10:35:14;3.78;;;2.10;;
77262;SDS011;66373;52.334;4.806;2023-07-29T10:37:41;2.97;;;2.00;;
77262;SDS011;66373;52.334;4.806;2023-07-29T10:40:11;3.85;;;2.38;;
77262;SDS011;66373;52.334;4.806;2023-07-29T10:42:38;3.55;;;2.15;;
77262;SDS011;66373;52.334;4.806;2023-07-29T10:45:35;3.10;;;2.28;;
77262;SDS011;66373;52.334;4.806;2023-07-29T10:48:13;5.55;;;2.80;;
77262;SDS011;66373;52.334;4.806;2023-07-29T10:51:25;3.10;;;2.25;;
77262;SDS011;66373;52.334;4.806;2023-07-29T10:53:57;4.93;;;2.20;;
77262;SDS011;66373;52.334;4.806;2023-07-29T10:56:29;3.97;;;2.15;;
77262;SDS011;66373;52.334;4.806;2023-07-29T10:58:58;2.45;;;2.00;;
77262;SDS011;66373;52.334;4.806;2023-07-29T11:01:29;4.70;;;2.40;;
77262;SDS011;66373;52.334;4.806;2023-07-29T11:10:01;4.25;;;2.08;;
77262;SDS011;66373;52.334;4.806;2023-07-29T11:12:37;3.67;;;2.17;;
77262;SDS011;66373;52.334;4.806;2023-07-29T11:15:15;3.70;;;2.40;;
77262;SDS011;66373;52.334;4.806;2023-07-29T11:17:44;3.85;;;2.88;;
77262;SDS011;66373;52.334;4.806;2023-07-29T11:20:14;4.35;;;2.22;;
77262;SDS011;66373;52.334;4.806;2023-07-29T11:22:42;3.65;;;1.92;;
77262;SDS011;66373;52.334;4.806;2023-07-29T11:25:10;2.67;;;2.22;;
77262;SDS011;66373;52.334;4.806;2023-07-29T11:27:38;6.28;;;2.50;;
77262;SDS011;66373;52.334;4.806;2023-07-29T11:30:06;6.05;;;2.10;;
77262;SDS011;66373;52.334;4.806;2023-07-29T11:32:35;2.90;;;2.20;;
77262;SDS011;66373;52.334;4.806;2023-07-29T11:35:03;4.15;;;2.28;;
77262;SDS011;66373;52.334;4.806;2023-07-29T11:37:33;3.15;;;2.30;;
77262;SDS011;66373;52.334;4.806;2023-07-29T11:40:01;6.63;;;2.42;;
77262;SDS011;66373;52.334;4.806;2023-07-29T11:42:31;4.57;;;2.55;;
77262;SDS011;66373;52.334;4.806;2023-07-29T11:44:58;5.78;;;2.60;;
77262;SDS011;66373;52.334;4.806;2023-07-29T11:47:25;2.70;;;2.30;;
77262;SDS011;66373;52.334;4.806;2023-07-29T11:49:52;4.00;;;2.33;;
77262;SDS011;66373;52.334;4.806;2023-07-29T11:52:19;3.60;;;2.10;;
77262;SDS011;66373;52.334;4.806;2023-07-29T11:54:49;2.92;;;2.30;;
77262;SDS011;66373;52.334;4.806;2023-07-29T11:57:16;5.22;;;2.40;;
77262;SDS011;66373;52.334;4.806;2023-07-29T11:59:44;3.72;;;2.10;;
77262;SDS011;66373;52.334;4.806;2023-07-29T12:02:15;2.97;;;2.20;;
77262;SDS011;66373;52.334;4.806;2023-07-29T12:04:43;4.50;;;1.90;;
77262;SDS011;66373;52.334;4.806;2023-07-29T12:07:14;5.25;;;2.58;;
77262;SDS011;66373;52.334;4.806;2023-07-29T12:09:43;3.53;;;2.28;;
77262;SDS011;66373;52.334;4.806;2023-07-29T12:12:11;2.65;;;2.08;;
77262;SDS011;66373;52.334;4.806;2023-07-29T12:14:38;3.30;;;2.20;;
77262;SDS011;66373;52.334;4.806;2023-07-29T12:17:10;3.88;;;2.00;;
77262;SDS011;66373;52.334;4.806;2023-07-29T12:19:40;3.88;;;2.08;;
77262;SDS011;66373;52.334;4.806;2023-07-29T12:22:09;4.43;;;2.25;;
77262;SDS011;66373;52.334;4.806;2023-07-29T12:24:38;3.25;;;2.08;;
77262;SDS011;66373;52.334;4.806;2023-07-29T12:27:12;2.83;;;2.05;;
77262;SDS011;66373;52.334;4.806;2023-07-29T12:29:42;3.22;;;1.90;;
77262;SDS011;66373;52.334;4.806;2023-07-29T12:32:11;2.38;;;2.17;;
77262;SDS011;66373;52.334;4.806;2023-07-29T12:34:39;2.42;;;1.80;;
77262;SDS011;66373;52.334;4.806;2023-07-29T12:37:06;2.78;;;1.80;;
77262;SDS011;66373;52.334;4.806;2023-07-29T12:39:34;2.13;;;1.83;;
77262;SDS011;66373;52.334;4.806;2023-07-29T12:42:06;3.13;;;1.83;;
77262;SDS011;66373;52.334;4.806;2023-07-29T12:44:35;4.68;;;1.83;;
77262;SDS011;66373;52.334;4.806;2023-07-29T12:47:03;3.00;;;1.80;;
77262;SDS011;66373;52.334;4.806;2023-07-29T12:49:33;2.40;;;1.80;;
77262;SDS011;66373;52.334;4.806;2023-07-29T12:52:00;1.70;;;1.60;;
77262;SDS011;66373;52.334;4.806;2023-07-29T12:54:27;3.55;;;1.85;;
77262;SDS011;66373;52.334;4.806;2023-07-29T12:56:54;2.05;;;1.85;;
77262;SDS011;66373;52.334;4.806;2023-07-29T12:59:21;2.00;;;1.70;;
77262;SDS011;66373;52.334;4.806;2023-07-29T13:01:50;3.65;;;2.10;;
77262;SDS011;66373;52.334;4.806;2023-07-29T13:04:20;3.25;;;1.75;;
77262;SDS011;66373;52.334;4.806;2023-07-29T13:06:47;1.60;;;1.50;;
77262;SDS011;66373;52.334;4.806;2023-07-29T13:09:14;1.50;;;1.42;;
77262;SDS011;66373;52.334;4.806;2023-07-29T13:11:40;1.73;;;1.45;;
77262;SDS011;66373;52.334;4.806;2023-07-29T13:14:07;5.40;;;1.63;;
77262;SDS011;66373;52.334;4.806;2023-07-29T13:16:34;1.80;;;1.70;;
77262;SDS011;66373;52.334;4.806;2023-07-29T13:19:06;1.77;;;1.48;;
77262;SDS011;66373;52.334;4.806;2023-07-29T13:21:33;3.03;;;1.42;;
77262;SDS011;66373;52.334;4.806;2023-07-29T13:24:00;3.63;;;1.60;;
77262;SDS011;66373;52.334;4.806;2023-07-29T13:26:27;2.15;;;1.30;;
77262;SDS011;66373;52.334;4.806;2023-07-29T13:28:54;2.15;;;1.60;;
77262;SDS011;66373;52.334;4.806;2023-07-29T13:31:21;2.25;;;1.50;;
77262;SDS011;66373;52.334;4.806;2023-07-29T13:33:48;1.88;;;1.40;;
77262;SDS011;66373;52.334;4.806;2023-07-29T13:36:16;1.77;;;1.45;;
77262;SDS011;66373;52.334;4.806;2023-07-29T13:38:43;2.08;;;1.58;;
77262;SDS011;66373;52.334;4.806;2023-07-29T13:41:10;1.60;;;1.50;;
77262;SDS011;66373;52.334;4.806;2023-07-29T13:43:37;1.98;;;1.38;;
77262;SDS011;66373;52.334;4.806;2023-07-29T13:46:04;2.30;;;1.35;;
77262;SDS011;66373;52.334;4.806;2023-07-29T13:48:31;1.90;;;1.40;;
77262;SDS011;66373;52.334;4.806;2023-07-29T13:51:01;1.58;;;1.40;;
77262;SDS011;66373;52.334;4.806;2023-07-29T13:53:30;1.60;;;1.50;;
77262;SDS011;66373;52.334;4.806;2023-07-29T13:55:56;1.40;;;1.30;;
77262;SDS011;66373;52.334;4.806;2023-07-29T13:58:24;3.58;;;1.60;;
77262;SDS011;66373;52.334;4.806;2023-07-29T14:00:51;2.15;;;1.50;;
77262;SDS011;66373;52.334;4.806;2023-07-29T14:03:18;2.35;;;1.50;;
77262;SDS011;66373;52.334;4.806;2023-07-29T14:05:45;2.72;;;1.45;;
77262;SDS011;66373;52.334;4.806;2023-07-29T14:08:12;2.28;;;1.73;;
77262;SDS011;66373;52.334;4.806;2023-07-29T14:10:41;1.70;;;1.50;;
77262;SDS011;66373;52.334;4.806;2023-07-29T14:13:08;2.00;;;1.60;;
77262;SDS011;66373;52.334;4.806;2023-07-29T14:15:35;2.40;;;1.50;;
77262;SDS011;66373;52.334;4.806;2023-07-29T14:18:02;2.63;;;1.52;;
77262;SDS011;66373;52.334;4.806;2023-07-29T14:20:29;2.97;;;1.67;;
77262;SDS011;66373;52.334;4.806;2023-07-29T14:22:56;5.28;;;2.00;;
77262;SDS011;66373;52.334;4.806;2023-07-29T14:25:22;3.92;;;1.60;;
77262;SDS011;66373;52.334;4.806;2023-07-29T14:27:51;3.72;;;1.73;;
77262;SDS011;66373;52.334;4.806;2023-07-29T14:30:18;3.53;;;1.70;;
77262;SDS011;66373;52.334;4.806;2023-07-29T14:32:45;2.35;;;1.70;;
77262;SDS011;66373;52.334;4.806;2023-07-29T14:35:12;2.78;;;1.85;;
77262;SDS011;66373;52.334;4.806;2023-07-29T14:37:39;4.10;;;1.77;;
77262;SDS011;66373;52.334;4.806;2023-07-29T14:40:07;5.38;;;1.95;;
77262;SDS011;66373;52.334;4.806;2023-07-29T14:42:34;3.30;;;1.98;;
77262;SDS011;66373;52.334;4.806;2023-07-29T14:45:03;2.53;;;1.90;;
77262;SDS011;66373;52.334;4.806;2023-07-29T14:47:30;2.38;;;1.83;;
77262;SDS011;66373;52.334;4.806;2023-07-29T14:50:00;3.60;;;2.00;;
77262;SDS011;66373;52.334;4.806;2023-07-29T14:52:27;7.22;;;2.55;;
77262;SDS011;66373;52.334;4.806;2023-07-29T14:54:54;3.55;;;1.85;;
77262;SDS011;66373;52.334;4.806;2023-07-29T14:57:21;2.10;;;1.92;;
77262;SDS011;66373;52.334;4.806;2023-07-29T14:59:48;2.22;;;1.90;;
77262;SDS011;66373;52.334;4.806;2023-07-29T15:02:16;3.35;;;1.80;;
77262;SDS011;66373;52.334;4.806;2023-07-29T15:04:43;3.08;;;2.10;;